Time;durP1;ratioP1;P1;durP2;ratioP2;P2;SDS_P1;SDS_P2;PMS_P1;PMS_P2;Temp;Humidity;BMP_temperature;BMP_pressure;BME280_temperature;BME280_humidity;BME280_pressure;Samples;Min_cycle;Max_cycle;Signal;HPM_P1;HPM_P2
2022/02/23 00:00:45;;;;;;;19.00;17.90;;;9.10;81.50;;;;;;5073524;28;20251;-72
2022/02/23 00:03:12;;;;;;;18.90;18.00;;;9.10;81.30;;;;;;5073745;28;20620;-72
2022/02/23 00:05:39;;;;;;;18.85;17.85;;;9.10;81.30;;;;;;5073518;28;20283;-72
2022/02/23 00:08:07;;;;;;;18.95;17.95;;;9.10;81.60;;;;;;5073559;28;20205;-72
2022/02/23 00:10:35;;;;;;;19.50;18.50;;;9.10;81.80;;;;;;5073249;28;20200;-72
2022/02/23 00:13:02;;;;;;;19.00;18.00;;;9.10;81.70;;;;;;5073552;28;20249;-72
2022/02/23 00:15:29;;;;;;;18.45;17.40;;;9.20;81.70;;;;;;5073501;28;20203;-72
2022/02/23 00:17:56;;;;;;;18.63;17.73;;;9.20;81.80;;;;;;5073418;28;20290;-72
2022/02/23 00:20:23;;;;;;;18.90;18.00;;;9.20;81.70;;;;;;5073011;28;20230;-72
2022/02/23 00:22:50;;;;;;;18.80;17.80;;;9.20;81.70;;;;;;5073407;28;20200;-72
2022/02/23 00:25:17;;;;;;;19.38;18.27;;;9.10;82.00;;;;;;5073372;28;20228;-72
2022/02/23 00:27:46;;;;;;;19.17;18.27;;;9.10;82.40;;;;;;5073158;28;20208;-72
2022/02/23 00:30:12;;;;;;;18.15;17.20;;;9.20;82.40;;;;;;5072799;28;20295;-72
2022/02/23 00:32:39;;;;;;;18.70;17.80;;;9.20;82.20;;;;;;5073003;28;20216;-72
2022/02/23 00:35:07;;;;;;;19.55;18.55;;;9.20;82.40;;;;;;5072993;28;20210;-72
2022/02/23 00:37:35;;;;;;;19.17;18.15;;;9.20;82.50;;;;;;5073120;28;20540;-72
2022/02/23 00:40:03;;;;;;;18.52;17.50;;;9.10;82.80;;;;;;5072812;28;20212;-72
2022/02/23 00:42:30;;;;;;;18.27;17.40;;;9.20;82.90;;;;;;5072896;28;20309;-72
2022/02/23 00:44:58;;;;;;;19.05;17.92;;;9.30;82.90;;;;;;5073008;28;20203;-72
2022/02/23 00:47:25;;;;;;;18.33;17.42;;;9.30;83.10;;;;;;5072955;28;20309;-72
2022/02/23 00:49:52;;;;;;;18.30;17.40;;;9.20;83.40;;;;;;5072838;28;20271;-72
2022/02/23 00:52:19;;;;;;;17.88;17.08;;;9.20;83.80;;;;;;5072928;28;20307;-72
2022/02/23 00:54:46;;;;;;;18.35;17.45;;;9.20;83.80;;;;;;5072836;28;20292;-72
2022/02/23 00:57:13;;;;;;;17.85;16.95;;;9.20;84.20;;;;;;5072753;28;20255;-72
2022/02/23 00:59:41;;;;;;;17.50;16.70;;;9.30;84.40;;;;;;5072366;28;20207;-72
2022/02/23 01:02:09;;;;;;;17.52;16.70;;;9.30;84.50;;;;;;5072688;28;20302;-72
2022/02/23 01:04:36;;;;;;;18.27;17.25;;;9.20;84.70;;;;;;5072813;28;20288;-72
2022/02/23 01:07:03;;;;;;;17.95;17.00;;;9.20;84.90;;;;;;5072733;28;20211;-72
2022/02/23 01:09:32;;;;;;;17.83;17.00;;;9.10;85.20;;;;;;5072441;28;20202;-72
2022/02/23 01:11:59;;;;;;;18.20;17.30;;;9.10;85.40;;;;;;5072486;28;20231;-72
2022/02/23 01:14:26;;;;;;;18.02;17.02;;;9.20;85.30;;;;;;5072461;28;20588;-72
2022/02/23 01:16:53;;;;;;;17.92;16.92;;;9.20;85.20;;;;;;5072172;28;20275;-72
2022/02/23 01:19:21;;;;;;;17.33;16.42;;;9.20;85.30;;;;;;5072461;28;20226;-72
2022/02/23 01:21:48;;;;;;;16.70;15.90;;;9.20;85.40;;;;;;5072541;28;20302;-72
2022/02/23 01:24:15;;;;;;;17.23;16.30;;;9.30;85.70;;;;;;5072497;28;20657;-72
2022/02/23 01:26:42;;;;;;;17.00;16.05;;;9.20;85.90;;;;;;5072455;28;20562;-72
2022/02/23 01:29:09;;;;;;;16.90;16.10;;;9.20;86.40;;;;;;5072268;28;20196;-72
2022/02/23 01:31:36;;;;;;;17.30;16.50;;;9.30;86.40;;;;;;5072504;28;20584;-72
2022/02/23 01:34:03;;;;;;;17.63;16.73;;;9.30;86.70;;;;;;5072280;28;20374;-72
2022/02/23 01:36:31;;;;;;;16.77;15.93;;;9.20;87.00;;;;;;5072379;28;20229;-72
2022/02/23 01:38:58;;;;;;;16.58;15.77;;;9.20;87.20;;;;;;5072430;28;20197;-72
2022/02/23 01:41:25;;;;;;;16.77;15.77;;;9.30;87.00;;;;;;5072040;28;20707;-72
2022/02/23 01:43:53;;;;;;;16.60;15.80;;;9.20;87.20;;;;;;5072307;28;20659;-72
2022/02/23 01:46:20;;;;;;;16.63;15.63;;;9.30;87.40;;;;;;5072489;28;20194;-72
2022/02/23 01:48:47;;;;;;;16.50;15.65;;;9.20;87.40;;;;;;5072148;28;20756;-72
2022/02/23 01:51:14;;;;;;;16.30;15.60;;;9.20;87.60;;;;;;5072035;28;20640;-72
2022/02/23 01:53:42;;;;;;;16.30;15.60;;;9.20;87.90;;;;;;5072297;28;20202;-72
2022/02/23 01:56:09;;;;;;;17.65;16.85;;;9.10;88.20;;;;;;5072082;28;20200;-72
2022/02/23 01:58:36;;;;;;;19.52;18.35;;;8.90;81.90;;;;;;5072055;28;20199;-72
2022/02/23 02:01:04;;;;;;;23.83;22.23;;;8.20;82.20;;;;;;5071748;28;20255;-72
2022/02/23 02:03:30;;;;;;;22.38;20.88;;;7.60;86.40;;;;;;5072186;28;20291;-73
2022/02/23 02:05:57;;;;;;;22.40;20.92;;;7.10;89.00;;;;;;5072051;28;20203;-73
2022/02/23 02:08:24;;;;;;;21.88;20.38;;;6.60;89.80;;;;;;5071888;28;20287;-73
2022/02/23 02:10:53;;;;;;;22.73;21.33;;;6.40;91.90;;;;;;5071594;28;20280;-73
2022/02/23 02:13:19;;;;;;;23.73;21.92;;;6.30;92.20;;;;;;5072090;28;20242;-73
2022/02/23 02:15:46;;;;;;;24.20;21.92;;;6.00;92.80;;;;;;5071931;28;20281;-73
2022/02/23 02:18:13;;;;;;;22.45;20.70;;;6.00;93.80;;;;;;5071817;28;20286;-73
2022/02/23 02:20:40;;;;;;;21.35;19.98;;;5.90;92.90;;;;;;5071545;28;20231;-73
2022/02/23 02:23:08;;;;;;;21.52;20.10;;;5.80;93.20;;;;;;5071965;28;20195;-73
2022/02/23 02:25:35;;;;;;;21.35;19.95;;;5.80;93.90;;;;;;5071860;28;20206;-73
2022/02/23 02:28:04;;;;;;;21.33;20.02;;;5.80;93.50;;;;;;5071893;28;20615;-72
2022/02/23 02:30:31;;;;;;;20.63;19.27;;;5.80;93.60;;;;;;5073879;28;20618;-72
2022/02/23 02:32:58;;;;;;;21.67;20.15;;;6.00;93.10;;;;;;5075486;28;20221;-72
2022/02/23 02:35:25;;;;;;;20.90;19.52;;;6.00;92.20;;;;;;5075207;28;20199;-72
2022/02/23 02:37:52;;;;;;;21.02;19.75;;;6.00;92.00;;;;;;5075377;28;20586;-73
2022/02/23 02:40:20;;;;;;;20.10;18.67;;;5.90;92.70;;;;;;5075082;28;20226;-73
2022/02/23 02:42:47;;;;;;;20.60;19.20;;;6.00;93.10;;;;;;5075333;28;20203;-72
2022/02/23 02:45:14;;;;;;;19.92;18.75;;;6.10;92.40;;;;;;5075190;28;20231;-72
2022/02/23 02:47:41;;;;;;;20.05;18.83;;;6.00;91.70;;;;;;5075174;28;20293;-73
2022/02/23 02:50:09;;;;;;;20.00;18.60;;;6.10;91.90;;;;;;5074823;28;20281;-73
2022/02/23 02:52:36;;;;;;;19.73;18.50;;;6.20;93.30;;;;;;5075033;28;20222;-73
2022/02/23 02:55:03;;;;;;;19.73;18.30;;;6.30;91.30;;;;;;5075046;28;20289;-72
2022/02/23 02:57:32;;;;;;;20.27;18.67;;;6.50;91.30;;;;;;5075135;28;20253;-72
2022/02/23 02:59:58;;;;;;;19.98;18.48;;;6.50;90.30;;;;;;5074896;28;20557;-72
2022/02/23 03:02:25;;;;;;;20.48;18.92;;;6.50;90.10;;;;;;5074933;28;20245;-72
2022/02/23 03:04:52;;;;;;;19.85;18.55;;;6.50;89.30;;;;;;5074818;28;20560;-73
2022/02/23 03:07:19;;;;;;;20.38;18.80;;;6.50;89.50;;;;;;5074862;28;20205;-73
2022/02/23 03:09:46;;;;;;;20.80;19.30;;;6.60;89.60;;;;;;5074518;28;20206;-72
2022/02/23 03:12:13;;;;;;;19.90;18.52;;;6.60;89.60;;;;;;5074769;28;20569;-72
2022/02/23 03:14:41;;;;;;;20.38;18.48;;;6.70;89.00;;;;;;5074846;28;20282;-72
2022/02/23 03:17:08;;;;;;;21.25;19.65;;;6.70;87.90;;;;;;5074748;28;20244;-72
2022/02/23 03:19:35;;;;;;;20.00;18.67;;;6.80;87.40;;;;;;5074652;28;20214;-72
2022/02/23 03:22:02;;;;;;;21.17;19.25;;;6.80;88.20;;;;;;5074550;28;20639;-72
2022/02/23 03:24:28;;;;;;;21.20;19.70;;;6.90;87.30;;;;;;5074564;28;20200;-72
2022/02/23 03:26:55;;;;;;;21.42;19.75;;;6.90;87.00;;;;;;5074673;28;20202;-72
2022/02/23 03:29:23;;;;;;;23.00;20.90;;;6.90;87.10;;;;;;5074201;28;20283;-72
2022/02/23 03:31:51;;;;;;;20.58;19.27;;;6.90;88.40;;;;;;5074620;28;20233;-73
2022/02/23 03:34:18;;;;;;;21.25;19.55;;;6.90;88.30;;;;;;5074208;28;20295;-72
2022/02/23 03:36:45;;;;;;;21.92;20.13;;;6.80;89.40;;;;;;5074212;28;20199;-72
2022/02/23 03:39:11;;;;;;;22.38;20.73;;;6.80;88.90;;;;;;5074029;28;20196;-72
2022/02/23 03:41:38;;;;;;;20.80;19.23;;;6.70;88.90;;;;;;5073719;28;20224;-72
2022/02/23 03:44:06;;;;;;;21.75;20.05;;;6.70;89.20;;;;;;5074010;28;20287;-73
2022/02/23 03:46:33;;;;;;;22.17;20.27;;;6.70;89.10;;;;;;5074073;28;20282;-72
2022/02/23 03:49:01;;;;;;;21.60;20.10;;;6.70;88.90;;;;;;5073961;28;20206;-72
2022/02/23 03:51:28;;;;;;;21.58;20.00;;;6.60;89.30;;;;;;5073819;28;20306;-72
2022/02/23 03:53:55;;;;;;;21.70;20.13;;;6.60;89.50;;;;;;5073871;28;20286;-73
2022/02/23 03:56:40;;;;;;;20.60;19.10;;;6.50;90.00;;;;;;5073827;28;20245;-72
2022/02/23 03:59:08;;;;;;;20.88;19.50;;;6.40;90.70;;;;;;5073689;28;20203;-72
2022/02/23 04:01:35;;;;;;;21.10;19.50;;;6.50;90.90;;;;;;5073708;28;20318;-73
2022/02/23 04:04:04;;;;;;;19.52;18.10;;;6.30;91.40;;;;;;5073719;28;20660;-72
2022/02/23 04:06:32;;;;;;;596.05;82.40;;;6.30;92.30;;;;;;5073687;28;20200;-72
2022/02/23 04:08:59;;;;;;;19.65;18.10;;;6.30;94.70;;;;;;5073607;28;20207;-73
2022/02/23 04:11:26;;;;;;;21.05;19.67;;;6.30;96.90;;;;;;5073164;28;20704;-72
2022/02/23 04:13:53;;;;;;;20.48;18.60;;;6.30;95.70;;;;;;5073679;28;20207;-72
2022/02/23 04:16:20;;;;;;;21.85;20.10;;;6.30;95.10;;;;;;5073490;28;20200;-73
2022/02/23 04:18:47;;;;;;;20.48;19.00;;;6.30;94.60;;;;;;5073357;28;20203;-72
2022/02/23 04:21:15;;;;;;;20.85;19.13;;;6.30;94.00;;;;;;5072816;28;20223;-72
2022/02/23 04:23:42;;;;;;;180.98;33.30;;;6.30;95.30;;;;;;5073363;28;20302;-73
2022/02/23 04:26:09;;;;;;;19.88;18.27;;;6.30;96.10;;;;;;5073208;28;20286;-72
2022/02/23 04:28:36;;;;;;;18.85;17.63;;;6.30;95.40;;;;;;5073235;28;20684;-72
2022/02/23 04:31:03;;;;;;;20.13;18.58;;;6.40;94.40;;;;;;5072715;28;20208;-72
2022/02/23 04:33:30;;;;;;;20.85;19.17;;;6.30;94.10;;;;;;5073272;28;20309;-72
2022/02/23 04:35:57;;;;;;;19.08;17.52;;;6.30;94.50;;;;;;5072954;28;20234;-72
2022/02/23 04:38:25;;;;;;;18.42;17.23;;;6.30;94.60;;;;;;5073028;28;20297;-72
2022/02/23 04:40:52;;;;;;;20.67;18.88;;;6.30;95.00;;;;;;5072697;28;20303;-73
2022/02/23 04:43:19;;;;;;;20.88;19.08;;;6.30;94.80;;;;;;5072969;28;20640;-72
2022/02/23 04:45:46;;;;;;;19.75;18.23;;;6.30;94.80;;;;;;5072871;28;20204;-72
2022/02/23 04:48:14;;;;;;;21.30;19.40;;;6.20;94.50;;;;;;5072880;28;20198;-72
2022/02/23 04:50:41;;;;;;;19.73;18.25;;;6.20;94.40;;;;;;5072644;28;20230;-72
2022/02/23 04:53:08;;;;;;;19.23;17.88;;;6.10;94.70;;;;;;5072250;28;20202;-73
2022/02/23 04:55:36;;;;;;;19.60;18.25;;;6.10;94.10;;;;;;5072865;28;20209;-72
2022/02/23 04:58:07;;;;;;;18.27;16.80;;;6.10;93.80;;;;;;5072737;28;20260;-72
2022/02/23 05:00:36;;;;;;;20.65;19.15;;;5.90;94.60;;;;;;5072597;28;20199;-72
2022/02/23 05:03:03;;;;;;;20.50;18.95;;;5.90;94.80;;;;;;5072749;28;20219;-72
2022/02/23 05:05:30;;;;;;;20.67;18.70;;;5.80;94.80;;;;;;5072572;28;20224;-72
2022/02/23 05:07:57;;;;;;;19.98;18.25;;;5.80;94.60;;;;;;5072668;28;20201;-73
2022/02/23 05:10:24;;;;;;;18.23;16.90;;;5.80;94.60;;;;;;5072207;28;20213;-72
2022/02/23 05:12:52;;;;;;;19.30;18.00;;;5.80;94.60;;;;;;5072759;28;20278;-73
2022/02/23 05:15:19;;;;;;;19.10;17.60;;;5.80;94.70;;;;;;5072569;28;20249;-72
2022/02/23 05:17:46;;;;;;;19.48;18.17;;;5.80;94.70;;;;;;5072447;28;20204;-72
2022/02/23 05:20:13;;;;;;;19.15;17.52;;;5.70;94.80;;;;;;5072359;28;20282;-72
2022/02/23 05:22:40;;;;;;;19.65;18.10;;;5.60;94.80;;;;;;5072455;28;20255;-72
2022/02/23 05:25:08;;;;;;;20.58;18.77;;;5.60;95.40;;;;;;5072542;28;20231;-72
2022/02/23 05:27:35;;;;;;;19.00;17.67;;;5.50;95.30;;;;;;5072462;28;20205;-72
2022/02/23 05:30:04;;;;;;;18.92;17.42;;;5.50;95.40;;;;;;5072108;28;20204;-72
2022/02/23 05:32:31;;;;;;;20.90;18.98;;;5.50;94.90;;;;;;5072410;28;20215;-72
2022/02/23 05:34:58;;;;;;;19.48;18.00;;;5.50;94.70;;;;;;5072157;28;20203;-72
2022/02/23 05:37:25;;;;;;;19.90;18.35;;;5.50;94.70;;;;;;5072507;28;20230;-72
2022/02/23 05:39:52;;;;;;;18.65;17.15;;;5.50;94.30;;;;;;5072343;28;20194;-72
2022/02/23 05:42:19;;;;;;;20.55;18.75;;;5.40;94.60;;;;;;5072240;28;20329;-72
2022/02/23 05:44:45;;;;;;;20.00;18.08;;;5.40;94.50;;;;;;5072165;28;20731;-72
2022/02/23 05:47:14;;;;;;;19.90;18.70;;;5.30;95.10;;;;;;5072216;28;20278;-72
2022/02/23 05:49:41;;;;;;;19.52;18.10;;;5.20;95.10;;;;;;5072009;28;20576;-72
2022/02/23 05:52:08;;;;;;;19.60;17.95;;;5.20;95.00;;;;;;5072253;28;20216;-72
2022/02/23 05:54:35;;;;;;;19.13;17.75;;;5.20;95.10;;;;;;5072201;28;20201;-72
2022/02/23 05:57:01;;;;;;;20.38;18.70;;;5.10;95.10;;;;;;5072074;28;20202;-72
2022/02/23 05:59:28;;;;;;;22.60;18.20;;;5.00;95.10;;;;;;5072050;28;20266;-72
2022/02/23 06:01:55;;;;;;;19.70;18.00;;;5.00;95.60;;;;;;5072110;28;20253;-72
2022/02/23 06:04:24;;;;;;;22.63;19.15;;;5.00;95.80;;;;;;5074641;28;20233;-72
2022/02/23 06:06:51;;;;;;;20.95;19.25;;;5.00;95.70;;;;;;5076024;28;20195;-72
2022/02/23 06:09:18;;;;;;;20.55;18.67;;;5.00;95.40;;;;;;5075837;28;20212;-72
2022/02/23 06:11:44;;;;;;;21.55;19.95;;;4.90;95.50;;;;;;5075690;28;20219;-72
2022/02/23 06:14:12;;;;;;;20.08;18.80;;;4.90;95.50;;;;;;5075793;28;20715;-72
2022/02/23 06:16:39;;;;;;;20.58;19.20;;;4.80;96.40;;;;;;5075811;28;20281;-72
2022/02/23 06:19:06;;;;;;;22.92;20.92;;;4.80;96.80;;;;;;5075668;28;20287;-72
2022/02/23 06:21:34;;;;;;;20.85;19.05;;;4.90;96.30;;;;;;5075543;28;20223;-72
2022/02/23 06:24:01;;;;;;;22.25;20.63;;;4.90;95.70;;;;;;5075551;28;20252;-72
2022/02/23 06:26:28;;;;;;;20.05;18.85;;;4.80;95.60;;;;;;5075562;28;20224;-72
2022/02/23 06:28:56;;;;;;;21.15;19.67;;;4.80;95.70;;;;;;5075383;28;20194;-72
2022/02/23 06:31:23;;;;;;;33.83;21.73;;;4.80;96.30;;;;;;5075301;28;20226;-72
2022/02/23 06:33:50;;;;;;;20.88;19.13;;;4.90;96.80;;;;;;5075422;28;20208;-72
2022/02/23 06:36:18;;;;;;;20.95;19.55;;;4.90;96.90;;;;;;5075288;28;20198;-72
2022/02/23 06:38:47;;;;;;;21.23;19.33;;;4.90;96.40;;;;;;5075331;28;20199;-72
2022/02/23 06:41:15;;;;;;;19.75;18.40;;;5.00;96.10;;;;;;5075103;28;20310;-72
2022/02/23 06:43:45;;;;;;;21.67;20.20;;;5.20;95.40;;;;;;5075283;28;20193;-72
2022/02/23 06:46:12;;;;;;;1112.63;151.15;;;5.20;94.90;;;;;;5075197;28;20286;-72
2022/02/23 06:48:40;;;;;;;22.50;20.55;;;5.10;97.00;;;;;;5075130;28;20290;-72
2022/02/23 06:51:07;;;;;;;20.70;18.88;;;5.10;96.40;;;;;;5074668;28;20557;-72
2022/02/23 06:53:35;;;;;;;20.73;19.23;;;5.20;95.70;;;;;;5075233;28;20608;-72
2022/02/23 06:56:03;;;;;;;19.75;18.23;;;5.20;94.90;;;;;;5074843;28;20202;-72
2022/02/23 06:58:30;;;;;;;19.95;18.45;;;5.10;94.80;;;;;;5074891;28;20200;-72
2022/02/23 07:00:57;;;;;;;20.80;19.40;;;5.10;94.70;;;;;;5074785;28;20219;-72
2022/02/23 07:03:24;;;;;;;21.00;19.23;;;5.20;95.00;;;;;;5074971;28;20213;-72
2022/02/23 07:05:51;;;;;;;21.08;19.67;;;5.20;94.50;;;;;;5074921;28;20226;-72
2022/02/23 07:08:18;;;;;;;20.92;19.42;;;5.20;95.50;;;;;;5074794;28;20300;-72
2022/02/23 07:10:45;;;;;;;21.13;19.48;;;5.20;95.00;;;;;;5074325;28;20275;-72
2022/02/23 07:13:13;;;;;;;21.30;19.30;;;5.20;95.10;;;;;;5074803;28;20285;-72
2022/02/23 07:15:40;;;;;;;20.30;18.98;;;5.30;94.70;;;;;;5073965;28;20665;-72
2022/02/23 07:18:07;;;;;;;20.20;18.80;;;5.30;94.80;;;;;;5074572;28;20238;-72
2022/02/23 07:20:34;;;;;;;21.45;19.80;;;5.30;94.20;;;;;;5074372;28;20282;-72
2022/02/23 07:23:00;;;;;;;21.83;19.65;;;5.50;95.50;;;;;;5074414;28;20233;-72
2022/02/23 07:25:28;;;;;;;23.15;19.70;;;5.60;94.40;;;;;;5074519;28;20234;-72
2022/02/23 07:27:55;;;;;;;137.25;32.88;;;5.60;95.20;;;;;;5074448;28;20202;-72
2022/02/23 07:30:23;;;;;;;21.27;19.58;;;5.50;96.70;;;;;;5073656;28;20268;-72
2022/02/23 07:32:51;;;;;;;22.17;20.88;;;5.50;96.30;;;;;;5074445;28;20302;-72
2022/02/23 07:35:18;;;;;;;20.67;19.25;;;5.50;95.70;;;;;;5074177;28;20591;-72
2022/02/23 07:37:49;;;;;;;576.03;70.30;;;5.60;94.80;;;;;;5074217;28;20206;-72
2022/02/23 07:40:18;;;;;;;20.80;19.40;;;5.60;95.30;;;;;;5074078;28;20268;-72
2022/02/23 07:42:45;;;;;;;21.00;19.40;;;5.60;95.60;;;;;;5074165;28;20218;-72
2022/02/23 07:45:12;;;;;;;22.08;20.13;;;5.80;94.90;;;;;;5074074;28;20553;-72
2022/02/23 07:47:40;;;;;;;22.42;20.27;;;5.90;93.80;;;;;;5073984;28;20211;-72
2022/02/23 07:50:12;;;;;;;22.85;21.08;;;5.90;93.50;;;;;;5073748;28;20199;-72
2022/02/23 07:52:39;;;;;;;19.88;18.38;;;5.90;93.60;;;;;;5073832;28;20212;-72
2022/02/23 07:55:08;;;;;;;20.25;18.95;;;6.10;93.00;;;;;;5074219;28;20669;-72
2022/02/23 07:57:34;;;;;;;20.40;19.08;;;6.10;93.30;;;;;;5073854;28;20203;-72
2022/02/23 08:00:05;;;;;;;20.90;19.23;;;6.20;93.00;;;;;;5073693;28;20286;-72
2022/02/23 08:02:32;;;;;;;18.90;17.30;;;6.20;92.40;;;;;;5073579;28;20228;-72
2022/02/23 08:05:01;;;;;;;21.08;19.67;;;6.30;92.50;;;;;;5073733;28;20206;-72
2022/02/23 08:07:28;;;;;;;21.50;20.08;;;6.40;92.30;;;;;;5073605;28;20234;-72
2022/02/23 08:09:55;;;;;;;21.55;19.88;;;6.50;92.20;;;;;;5073239;28;20207;-72
2022/02/23 08:12:23;;;;;;;20.52;18.73;;;6.60;91.90;;;;;;5073489;28;20224;-72
2022/02/23 08:14:52;;;;;;;20.00;18.45;;;6.70;91.90;;;;;;5073516;28;20205;-72
2022/02/23 08:20:06;;;;;;;20.40;18.95;;;6.80;90.60;;;;;;5073342;28;20268;-72
2022/02/23 08:22:33;;;;;;;20.55;18.95;;;7.00;90.70;;;;;;5073441;28;20680;-72
2022/02/23 08:25:00;;;;;;;21.83;20.20;;;7.10;90.60;;;;;;5073261;28;20286;-72
2022/02/23 08:27:28;;;;;;;21.13;19.52;;;7.20;90.30;;;;;;5072286;28;20212;-72
2022/02/23 08:29:55;;;;;;;21.50;20.17;;;7.30;90.20;;;;;;5072890;28;20254;-72
2022/02/23 08:32:24;;;;;;;21.13;19.83;;;7.40;89.80;;;;;;5073174;28;20835;-72
2022/02/23 08:34:52;;;;;;;21.38;19.80;;;7.50;89.70;;;;;;5072939;28;20200;-72
2022/02/23 08:37:20;;;;;;;19.85;18.65;;;7.60;89.20;;;;;;5073103;28;20668;-72
2022/02/23 08:39:48;;;;;;;21.08;19.85;;;7.70;88.70;;;;;;5072767;28;20231;-72
2022/02/23 08:42:17;;;;;;;19.92;18.52;;;7.80;88.50;;;;;;5072791;28;20212;-72
2022/02/23 08:44:44;;;;;;;21.30;19.83;;;7.80;87.90;;;;;;5072827;28;20207;-72
2022/02/23 08:47:11;;;;;;;21.30;19.77;;;7.80;87.40;;;;;;5072936;28;20291;-72
2022/02/23 08:49:39;;;;;;;21.52;20.25;;;8.00;87.50;;;;;;5072744;28;20776;-72
2022/02/23 08:52:07;;;;;;;21.52;20.00;;;8.10;86.80;;;;;;5072781;28;20223;-72
2022/02/23 08:54:36;;;;;;;21.48;19.85;;;8.20;86.60;;;;;;5072810;28;20238;-72
2022/02/23 08:57:04;;;;;;;20.63;19.40;;;8.30;86.40;;;;;;5072670;28;20704;-72
2022/02/23 08:59:31;;;;;;;19.52;18.23;;;8.50;86.10;;;;;;5072641;28;20196;-72
2022/02/23 09:01:58;;;;;;;22.80;20.90;;;8.70;85.50;;;;;;5072807;28;20222;-72
2022/02/23 09:04:25;;;;;;;20.60;18.90;;;8.80;85.10;;;;;;5072786;28;20894;-72
2022/02/23 09:06:52;;;;;;;20.48;19.00;;;9.00;84.40;;;;;;5072807;28;20199;-72
2022/02/23 09:09:19;;;;;;;21.38;19.98;;;9.20;84.10;;;;;;5072467;28;20731;-72
2022/02/23 09:11:47;;;;;;;20.10;18.90;;;9.20;82.90;;;;;;5072619;28;20316;-72
2022/02/23 09:14:14;;;;;;;23.53;21.73;;;9.30;82.40;;;;;;5072653;28;20442;-72
2022/02/23 09:16:44;;;;;;;22.35;20.65;;;9.30;81.60;;;;;;5072539;28;20961;-72
2022/02/23 09:19:11;;;;;;;21.90;20.10;;;9.30;81.20;;;;;;5072482;28;20661;-72
2022/02/23 09:21:38;;;;;;;21.10;19.60;;;9.40;80.40;;;;;;5072481;28;20259;-72
2022/02/23 09:24:06;;;;;;;21.90;20.25;;;9.40;79.70;;;;;;5072336;28;20227;-72
2022/02/23 09:26:33;;;;;;;23.67;21.90;;;9.40;79.30;;;;;;5072457;28;20228;-72
2022/02/23 09:29:02;;;;;;;60.47;29.97;;;9.40;78.60;;;;;;5072280;28;20447;-72
2022/02/23 09:31:29;;;;;;;22.07;20.37;;;9.50;78.50;;;;;;5072233;28;20562;-72
2022/02/23 09:33:55;;;;;;;21.27;19.88;;;9.80;77.50;;;;;;5072410;28;20447;-72
2022/02/23 09:36:23;;;;;;;23.03;21.37;;;9.90;76.40;;;;;;5072084;28;20204;-72
2022/02/23 09:38:51;;;;;;;21.47;19.63;;;10.00;75.60;;;;;;5074122;28;20478;-73
2022/02/23 09:41:18;;;;;;;21.33;20.20;;;10.20;74.80;;;;;;5076260;28;20961;-72
2022/02/23 09:43:48;;;;;;;21.83;20.47;;;10.40;74.10;;;;;;5076415;28;20648;-73
2022/02/23 09:46:20;;;;;;;23.43;21.93;;;10.70;72.60;;;;;;5076320;28;20870;-73
2022/02/23 09:48:48;;;;;;;23.10;21.43;;;10.90;71.20;;;;;;5076284;28;20455;-72
2022/02/23 09:51:15;;;;;;;23.40;21.80;;;11.00;69.60;;;;;;5076205;28;20483;-72
2022/02/23 09:53:45;;;;;;;24.00;22.07;;;11.10;69.00;;;;;;5076322;28;20450;-72
2022/02/23 09:56:12;;;;;;;23.50;22.10;;;11.20;68.60;;;;;;5076456;28;20453;-72
2022/02/23 09:58:40;;;;;;;22.93;21.53;;;11.30;68.10;;;;;;5076074;28;20629;-72
2022/02/23 10:01:08;;;;;;;24.60;23.00;;;11.30;66.50;;;;;;5075918;28;20479;-73
2022/02/23 10:03:38;;;;;;;23.73;22.23;;;11.50;66.90;;;;;;5076060;28;20842;-72
2022/02/23 10:06:05;;;;;;;25.03;23.50;;;11.50;66.00;;;;;;5076190;28;20462;-73
2022/02/23 10:08:33;;;;;;;24.73;23.03;;;11.50;66.10;;;;;;5075864;28;20458;-73
2022/02/23 10:11:01;;;;;;;21.97;20.57;;;11.50;66.10;;;;;;5075538;28;20537;-73
2022/02/23 10:13:29;;;;;;;22.70;21.30;;;11.60;66.10;;;;;;5075911;28;20533;-72
2022/02/23 10:15:58;;;;;;;23.90;22.33;;;11.70;65.60;;;;;;5075726;28;20446;-73
2022/02/23 10:18:28;;;;;;;23.87;22.30;;;11.80;65.90;;;;;;5075698;28;20469;-73
2022/02/23 10:20:57;;;;;;;26.87;25.00;;;11.80;65.90;;;;;;5075527;28;20471;-72
2022/02/23 10:23:28;;;;;;;24.00;22.43;;;11.90;65.60;;;;;;5075579;28;20580;-72
2022/02/23 10:25:58;;;;;;;23.80;22.03;;;12.00;65.60;;;;;;5075649;28;20481;-72
2022/02/23 10:28:27;;;;;;;25.23;23.70;;;12.10;64.60;;;;;;5075502;28;20446;-72
2022/02/23 10:30:56;;;;;;;24.20;22.90;;;12.00;64.50;;;;;;5075021;28;20482;-72
2022/02/23 10:33:24;;;;;;;24.70;23.37;;;12.20;64.00;;;;;;5075506;28;20948;-72
2022/02/23 10:35:53;;;;;;;24.40;22.17;;;12.20;64.10;;;;;;5075169;28;20450;-72
2022/02/23 10:38:25;;;;;;;22.93;21.43;;;12.40;63.70;;;;;;5075333;28;20819;-72
2022/02/23 10:40:54;;;;;;;22.30;20.93;;;12.40;63.00;;;;;;5075087;28;20544;-73
2022/02/23 10:43:25;;;;;;;23.67;21.70;;;12.40;62.80;;;;;;5075164;28;21007;-73
2022/02/23 10:45:53;;;;;;;25.57;24.10;;;12.50;62.70;;;;;;5075396;28;20455;-72
2022/02/23 10:48:33;;;;;;;23.73;22.30;;;12.50;63.00;;;;;;5075303;28;20548;-73
2022/02/23 10:51:01;;;;;;;22.13;20.90;;;12.50;62.90;;;;;;5073781;28;20915;-72
2022/02/23 10:53:32;;;;;;;24.10;22.50;;;12.50;62.50;;;;;;5075063;28;20535;-73
2022/02/23 10:56:00;;;;;;;23.10;21.60;;;12.50;62.40;;;;;;5074978;28;20560;-72
2022/02/23 10:58:29;;;;;;;23.17;21.67;;;12.60;62.20;;;;;;5075118;28;20548;-73
2022/02/23 11:01:04;;;;;;;25.20;23.60;;;12.70;62.50;;;;;;5074829;28;20470;-73
2022/02/23 11:03:32;;;;;;;24.70;23.03;;;12.40;62.60;;;;;;5074967;28;20561;-73
2022/02/23 11:05:58;;;;;;;24.17;22.70;;;12.40;63.20;;;;;;5074828;28;20971;-73
2022/02/23 11:08:27;;;;;;;25.00;23.60;;;12.30;63.10;;;;;;5074795;28;20460;-73
2022/02/23 11:10:57;;;;;;;23.83;22.23;;;12.30;63.40;;;;;;5074463;28;20478;-73
2022/02/23 11:13:24;;;;;;;25.53;23.80;;;12.30;63.40;;;;;;5075145;28;20446;-72
2022/02/23 11:15:52;;;;;;;23.60;22.20;;;12.40;63.20;;;;;;5074807;28;20447;-73
2022/02/23 11:18:23;;;;;;;24.63;23.00;;;12.30;63.00;;;;;;5074542;28;20972;-72
2022/02/23 11:20:51;;;;;;;23.97;22.37;;;12.40;62.70;;;;;;5074448;28;20488;-73
2022/02/23 11:23:19;;;;;;;24.03;22.53;;;12.50;62.00;;;;;;5074580;28;20573;-72
2022/02/23 11:25:48;;;;;;;41.07;26.10;;;12.60;61.90;;;;;;5074391;28;20975;-72
2022/02/23 11:28:22;;;;;;;24.47;22.30;;;12.60;62.00;;;;;;5074469;28;20458;-72
2022/02/23 11:30:50;;;;;;;24.73;23.00;;;12.70;61.90;;;;;;5073754;28;20480;-73
2022/02/23 11:33:22;;;;;;;24.63;22.63;;;12.70;61.90;;;;;;5074396;28;20540;-73
2022/02/23 11:35:51;;;;;;;25.70;23.87;;;12.70;62.20;;;;;;5074212;28;20479;-72
2022/02/23 11:38:20;;;;;;;23.93;22.13;;;12.80;62.30;;;;;;5074301;28;20514;-73
2022/02/23 11:40:49;;;;;;;26.00;24.00;;;13.00;61.50;;;;;;5073952;28;20530;-72
2022/02/23 11:43:28;;;;;;;24.53;22.87;;;13.00;61.80;;;;;;5074131;28;20509;-72
2022/02/23 11:45:57;;;;;;;24.97;23.47;;;13.10;61.90;;;;;;5074021;28;20464;-72
2022/02/23 11:48:24;;;;;;;23.90;22.37;;;13.10;61.90;;;;;;5073992;28;20933;-72
2022/02/23 11:51:10;;;;;;;22.97;21.57;;;13.00;61.80;;;;;;5073844;28;20475;-72
2022/02/23 11:53:59;;;;;;;27.57;25.50;;;13.00;61.80;;;;;;5074091;28;20449;-72
2022/02/23 11:56:47;;;;;;;23.63;21.90;;;13.00;61.60;;;;;;5073892;28;20530;-72
2022/02/23 12:02:31;;;;;;;23.67;22.07;;;13.00;62.50;;;;;;5073558;28;20488;-72
2022/02/23 12:04:59;;;;;;;24.77;22.83;;;13.00;61.20;;;;;;5073676;28;20492;-73
2022/02/23 12:07:27;;;;;;;24.13;22.50;;;13.00;61.00;;;;;;5073625;28;21067;-72
2022/02/23 12:10:10;;;;;;;25.07;23.30;;;13.20;60.80;;;;;;5073517;28;20451;-73
2022/02/23 12:12:38;;;;;;;23.37;21.57;;;13.40;60.30;;;;;;5073540;28;20553;-72
2022/02/23 12:15:08;;;;;;;23.60;22.10;;;13.40;60.40;;;;;;5073531;28;20536;-73
2022/02/23 12:17:59;;;;;;;24.40;22.73;;;13.40;60.40;;;;;;5073536;28;20462;-72
2022/02/23 12:20:50;;;;;;;25.13;23.60;;;13.40;60.70;;;;;;5068646;28;20469;-72
2022/02/23 12:23:37;;;;;;;54.00;26.80;;;13.40;60.80;;;;;;5073426;28;20449;-73
2022/02/23 12:26:36;;;;;;;24.53;22.70;;;13.40;61.00;;;;;;5073313;28;20492;-73
2022/02/23 12:29:07;;;;;;;24.53;23.03;;;13.40;61.00;;;;;;5073244;28;20542;-73
2022/02/23 12:31:35;;;;;;;24.80;22.73;;;13.50;61.10;;;;;;5072845;28;21007;-72
2022/02/23 12:34:07;;;;;;;25.20;23.20;;;13.50;61.20;;;;;;5073081;28;20479;-72
2022/02/23 12:36:38;;;;;;;24.70;22.40;;;13.60;61.20;;;;;;5073009;28;20453;-72
2022/02/23 12:39:08;;;;;;;24.13;22.10;;;13.60;60.10;;;;;;5073193;28;20527;-72
2022/02/23 12:41:36;;;;;;;24.03;22.23;;;13.60;59.70;;;;;;5073105;28;20478;-73
2022/02/23 12:44:07;;;;;;;23.70;22.20;;;13.60;59.20;;;;;;5072889;28;20790;-73